createdAt,value
2023-01-29T00:02:24.252Z,101312.84
2023-01-29T00:05:28.520Z,101318.81
2023-01-29T00:08:33.948Z,101309.62
2023-01-29T00:11:36.795Z,101315.75
2023-01-29T00:14:39.337Z,101321.81
2023-01-29T00:17:42.109Z,101323.44
2023-01-29T00:20:45.176Z,101323.44
2023-01-29T00:23:48.677Z,101322.53
2023-01-29T00:26:51.298Z,101321.75
2023-01-29T00:30:12.062Z,101324.41
2023-01-29T00:33:14.945Z,101332.22
2023-01-29T00:36:18.890Z,101330.28
2023-01-29T00:39:31.455Z,101335.06
2023-01-29T00:42:58.115Z,101330.56
2023-01-29T00:46:00.665Z,101337.38
2023-01-29T00:49:05.216Z,101310.34
2023-01-29T00:52:26.288Z,101330.34
2023-01-29T00:55:29.148Z,101333.84
2023-01-29T00:58:36.622Z,101343.31
2023-01-29T01:01:57.917Z,101338.22
2023-01-29T01:05:03.199Z,101346.09
2023-01-29T01:08:26.183Z,101345.19
2023-01-29T01:11:28.815Z,101339.78
2023-01-29T01:14:31.604Z,101337.19
2023-01-29T01:17:34.392Z,101343.88
2023-01-29T01:20:37.400Z,101336.84
2023-01-29T01:23:40.129Z,101339.00
2023-01-29T01:26:43.061Z,101345.69
2023-01-29T01:29:46.851Z,101351.75
2023-01-29T01:32:50.311Z,101349.25
2023-01-29T01:35:53.106Z,101357.19
2023-01-29T01:38:56.855Z,101349.19
2023-01-29T01:41:59.380Z,101358.66
2023-01-29T01:45:08.073Z,101355.03
2023-01-29T01:48:18.751Z,101353.44
2023-01-29T01:51:23.043Z,101351.56
2023-01-29T01:54:28.194Z,101348.69
2023-01-29T01:57:31.426Z,101357.06
2023-01-29T02:00:34.331Z,101363.34
2023-01-29T02:04:00.095Z,101369.06
2023-01-29T02:07:23.358Z,101376.44
2023-01-29T02:10:27.924Z,101368.97
2023-01-29T02:13:31.358Z,101385.78
2023-01-29T02:16:35.401Z,101379.19
2023-01-29T02:19:48.612Z,101379.47
2023-01-29T02:22:59.272Z,101386.78
2023-01-29T02:26:20.819Z,101395.91
2023-01-29T02:29:34.651Z,101388.09
2023-01-29T02:32:54.767Z,101382.97
2023-01-29T02:36:19.368Z,101380.31
2023-01-29T02:39:45.270Z,101390.25
2023-01-29T02:43:11.032Z,101387.34
2023-01-29T02:46:34.917Z,101390.41
2023-01-29T02:49:50.290Z,101389.06
2023-01-29T02:53:15.369Z,101394.72
2023-01-29T02:56:22.932Z,101393.31
2023-01-29T02:59:32.699Z,101394.22
2023-01-29T03:02:41.635Z,101399.16
2023-01-29T03:06:06.534Z,101406.69
2023-01-29T03:09:18.031Z,101394.06
2023-01-29T03:12:34.066Z,101399.50
2023-01-29T03:15:42.495Z,101406.19
2023-01-29T03:18:51.068Z,101408.06
2023-01-29T03:21:59.957Z,101421.62
2023-01-29T03:25:23.537Z,101407.91
2023-01-29T03:28:47.014Z,101410.56
2023-01-29T03:32:06.760Z,101400.75
2023-01-29T03:35:11.113Z,101411.09
2023-01-29T03:38:14.741Z,101412.09
2023-01-29T03:41:25.698Z,101414.50
2023-01-29T03:44:58.067Z,101419.81
2023-01-29T03:48:05.856Z,101413.91
2023-01-29T03:51:17.764Z,101418.97
2023-01-29T03:54:28.375Z,101418.75
2023-01-29T03:57:42.885Z,101407.84
2023-01-29T04:00:57.816Z,101406.94
2023-01-29T04:04:27.171Z,101404.06
2023-01-29T04:07:33.524Z,101411.47
2023-01-29T04:10:39.261Z,101400.88
2023-01-29T04:13:42.636Z,101404.34
2023-01-29T04:16:50.317Z,101391.97
2023-01-29T04:19:54.031Z,101386.53
2023-01-29T04:22:56.944Z,101396.44
2023-01-29T04:26:29.247Z,101385.84
2023-01-29T04:29:43.530Z,101394.62
2023-01-29T04:33:05.233Z,101381.69
2023-01-29T04:36:20.449Z,101392.44
2023-01-29T04:39:33.117Z,101381.78
2023-01-29T04:43:22.508Z,101380.88
2023-01-29T04:47:05.194Z,101392.34
2023-01-29T04:50:24.517Z,101387.81
2023-01-29T04:53:37.334Z,101390.25
2023-01-29T04:56:54.729Z,101399.97
2023-01-29T05:00:04.049Z,101384.19
2023-01-29T05:03:09.743Z,101395.44
2023-01-29T05:06:12.574Z,101392.72
2023-01-29T05:09:16.623Z,101405.03
2023-01-29T05:12:19.654Z,101404.88
2023-01-29T05:15:26.834Z,101417.03
2023-01-29T05:18:30.151Z,101402.31
2023-01-29T05:21:33.112Z,101409.66
2023-01-29T05:24:37.295Z,101416.97
2023-01-29T05:27:58.689Z,101426.28
2023-01-29T05:31:01.458Z,101428.03
2023-01-29T05:34:04.357Z,101427.88
2023-01-29T05:37:07.214Z,101421.06
2023-01-29T05:40:10.750Z,101418.50
2023-01-29T05:43:24.168Z,101424.47
2023-01-29T05:46:27.054Z,101417.72
2023-01-29T05:49:29.822Z,101417.97
2023-01-29T05:52:32.698Z,101419.25
2023-01-29T05:55:35.263Z,101419.09
2023-01-29T05:58:39.990Z,101417.59
2023-01-29T06:01:42.869Z,101427.13
2023-01-29T06:04:45.756Z,101421.34
2023-01-29T06:07:48.323Z,101425.75
2023-01-29T06:10:51.171Z,101421.81
2023-01-29T06:13:53.880Z,101417.13
2023-01-29T06:16:56.689Z,101418.94
2023-01-29T06:19:59.358Z,101412.91
2023-01-29T06:23:02.267Z,101401.28
2023-01-29T06:26:07.315Z,101407.50
2023-01-29T06:29:10.295Z,101398.91
2023-01-29T06:32:13.098Z,101400.72
2023-01-29T06:35:18.083Z,101408.66
2023-01-29T06:38:20.754Z,101409.25
2023-01-29T06:41:25.761Z,101421.62
2023-01-29T06:44:28.541Z,101411.66
2023-01-29T06:47:31.478Z,101415.88
2023-01-29T06:50:34.119Z,101415.31
2023-01-29T06:53:38.397Z,101422.41
2023-01-29T06:56:40.972Z,101416.31
2023-01-29T06:59:43.791Z,101419.19
2023-01-29T07:02:49.636Z,101417.94
2023-01-29T07:05:53.049Z,101417.94
2023-01-29T07:08:56.120Z,101434.59
2023-01-29T07:11:58.994Z,101432.63
2023-01-29T07:15:01.508Z,101429.00
2023-01-29T07:18:12.042Z,101439.97
2023-01-29T07:21:14.995Z,101444.09
2023-01-29T07:24:17.866Z,101442.63
2023-01-29T07:27:20.450Z,101440.87
2023-01-29T07:30:23.331Z,101444.81
2023-01-29T07:33:26.228Z,101451.44
2023-01-29T07:36:29.863Z,101458.47
2023-01-29T07:39:33.023Z,101461.19
2023-01-29T07:42:36.373Z,101463.09
2023-01-29T07:45:40.001Z,101456.06
2023-01-29T07:48:42.970Z,101448.22
2023-01-29T07:51:45.518Z,101449.97
2023-01-29T07:54:48.592Z,101436.66
2023-01-29T07:58:02.975Z,101444.75
2023-01-29T08:01:10.329Z,101450.53
2023-01-29T08:04:13.227Z,101445.69
2023-01-29T08:07:15.827Z,101444.16
2023-01-29T08:10:19.410Z,101434.81
2023-01-29T08:13:22.281Z,101444.25
2023-01-29T08:16:25.124Z,101444.13
2023-01-29T08:19:27.824Z,101453.91
2023-01-29T08:22:30.682Z,101447.66
2023-01-29T08:25:34.146Z,101449.31
2023-01-29T08:28:38.852Z,101454.44
2023-01-29T08:31:41.515Z,101457.78
2023-01-29T08:34:44.843Z,101451.88
2023-01-29T08:37:59.501Z,101442.66
2023-01-29T08:41:02.699Z,101440.09
2023-01-29T08:44:05.538Z,101445.25
2023-01-29T08:47:08.434Z,101435.38
2023-01-29T08:50:11.659Z,101435.28
2023-01-29T08:53:15.074Z,101441.62
2023-01-29T08:56:17.703Z,101453.63
2023-01-29T08:59:22.913Z,101456.38
2023-01-29T09:02:25.646Z,101455.69
2023-01-29T09:05:28.940Z,101471.53
2023-01-29T09:08:31.514Z,101459.81
2023-01-29T09:11:34.363Z,101463.69
2023-01-29T09:14:37.104Z,101451.69
2023-01-29T09:17:41.072Z,101456.72
2023-01-29T09:20:43.645Z,101452.81
2023-01-29T09:23:46.573Z,101454.09
2023-01-29T09:26:49.843Z,101463.38
2023-01-29T09:29:52.760Z,101467.25
2023-01-29T09:32:55.473Z,101464.69
2023-01-29T09:35:58.489Z,101455.44
2023-01-29T09:39:01.086Z,101468.91
2023-01-29T09:42:12.580Z,101462.19
2023-01-29T09:45:21.344Z,101484.41
2023-01-29T09:48:28.905Z,101471.59
2023-01-29T09:51:35.724Z,101487.66
2023-01-29T09:54:53.820Z,101479.84
2023-01-29T10:01:09.062Z,101471.66
2023-01-29T10:04:45.152Z,101470.47
2023-01-29T10:08:06.532Z,101471.66
2023-01-29T10:11:17.472Z,101480.44
2023-01-29T10:14:55.544Z,101458.06
2023-01-29T10:18:17.047Z,101478.47
2023-01-29T10:21:31.568Z,101461.06
2023-01-29T10:24:39.347Z,101460.03
2023-01-29T10:27:48.170Z,101460.03
2023-01-29T10:30:58.656Z,101455.34
2023-01-29T10:34:04.880Z,101460.31
2023-01-29T10:37:24.426Z,101466.78
2023-01-29T10:40:33.144Z,101441.84
2023-01-29T10:44:06.844Z,101441.28
2023-01-29T10:47:24.676Z,101445.59
2023-01-29T10:50:39.589Z,101447.34
2023-01-29T10:54:21.286Z,101440.69
2023-01-29T10:57:56.654Z,101430.41
2023-01-29T11:01:00.648Z,101428.28
2023-01-29T11:04:04.915Z,101423.34
2023-01-29T11:07:08.119Z,101424.13
2023-01-29T11:10:15.087Z,101410.25
2023-01-29T11:13:18.311Z,101419.06
2023-01-29T11:16:21.387Z,101421.06
2023-01-29T11:19:38.314Z,101405.94
2023-01-29T11:22:54.060Z,101383.38
2023-01-29T11:25:58.043Z,101412.13
2023-01-29T11:29:00.894Z,101402.47
2023-01-29T11:32:05.926Z,101394.56
2023-01-29T11:35:14.764Z,101396.22
2023-01-29T11:38:28.485Z,101389.28
2023-01-29T11:41:42.978Z,101393.94
2023-01-29T11:44:45.572Z,101391.78
2023-01-29T11:47:54.268Z,101385.91
2023-01-29T11:51:00.808Z,101369.13
2023-01-29T11:54:04.725Z,101358.19
2023-01-29T11:57:20.170Z,101351.91
2023-01-29T12:00:25.413Z,101346.53
2023-01-29T12:03:39.687Z,101347.34
2023-01-29T12:06:42.900Z,101343.78
2023-01-29T12:09:54.823Z,101339.19
2023-01-29T12:13:09.838Z,101323.00
2023-01-29T12:16:29.706Z,101319.84
2023-01-29T12:19:50.124Z,101311.47
2023-01-29T12:23:08.830Z,101294.78
2023-01-29T12:26:16.192Z,101307.28
2023-01-29T12:29:38.077Z,101301.31
2023-01-29T12:32:49.948Z,101294.75
2023-01-29T12:36:09.251Z,101296.47
2023-01-29T12:39:16.760Z,101287.69
2023-01-29T12:42:22.724Z,101281.50
2023-01-29T12:45:26.631Z,101278.94
2023-01-29T12:48:39.103Z,101278.63
2023-01-29T12:51:49.088Z,101269.88
2023-01-29T12:55:01.843Z,101239.84
2023-01-29T12:58:09.959Z,101258.47
2023-01-29T13:01:16.895Z,101251.22
2023-01-29T13:04:40.517Z,101263.87
2023-01-29T13:07:47.916Z,101249.00
2023-01-29T13:10:53.183Z,101255.25
2023-01-29T13:14:23.259Z,101255.41
2023-01-29T13:17:43.342Z,101254.56
2023-01-29T13:20:48.418Z,101243.87
2023-01-29T13:24:00.598Z,101241.06
2023-01-29T13:27:04.045Z,101242.81
2023-01-29T13:30:08.014Z,101238.69
2023-01-29T13:33:23.687Z,101231.06
2023-01-29T13:36:29.192Z,101228.62
2023-01-29T13:39:37.487Z,101229.56
2023-01-29T13:42:43.820Z,101238.81
2023-01-29T13:45:48.076Z,101235.09
2023-01-29T13:48:52.401Z,101238.81
2023-01-29T13:51:55.549Z,101241.03
2023-01-29T13:55:04.916Z,101233.87
2023-01-29T13:58:14.173Z,101232.84
2023-01-29T14:01:21.170Z,101233.34
2023-01-29T14:04:26.880Z,101231.97
2023-01-29T14:07:49.974Z,101237.59
2023-01-29T14:11:17.931Z,101240.78
2023-01-29T14:14:48.693Z,101237.22
2023-01-29T14:17:55.711Z,101241.09
2023-01-29T14:21:17.850Z,101247.16
2023-01-29T14:24:22.535Z,101244.28
2023-01-29T14:27:25.865Z,101249.63
2023-01-29T14:30:33.071Z,101245.84
2023-01-29T14:33:38.537Z,101237.19
2023-01-29T14:36:42.481Z,101240.59
2023-01-29T14:39:50.225Z,101238.00
2023-01-29T14:43:05.286Z,101244.66
2023-01-29T14:46:42.345Z,101249.41
2023-01-29T14:49:56.643Z,101241.94
2023-01-29T14:53:23.193Z,101241.84
2023-01-29T14:56:37.472Z,101248.06
2023-01-29T15:00:01.025Z,101248.97
2023-01-29T15:03:17.269Z,101246.91
2023-01-29T15:06:44.848Z,101249.41
2023-01-29T15:10:22.007Z,101244.28
2023-01-29T15:13:33.111Z,101250.09
2023-01-29T15:16:45.213Z,101249.72
2023-01-29T15:19:48.972Z,101256.75
2023-01-29T15:22:51.955Z,101250.63
2023-01-29T15:25:57.625Z,101252.66
2023-01-29T15:29:04.590Z,101249.72
2023-01-29T15:32:08.237Z,101250.50
2023-01-29T15:35:34.258Z,101249.91
2023-01-29T15:38:36.875Z,101248.31
2023-01-29T15:41:39.912Z,101249.78
2023-01-29T15:44:46.537Z,101253.31
2023-01-29T15:47:49.936Z,101254.34
2023-01-29T15:50:54.439Z,101254.69
2023-01-29T15:53:59.200Z,101262.12
2023-01-29T15:57:02.821Z,101264.44
2023-01-29T16:00:08.151Z,101259.31
2023-01-29T16:03:15.517Z,101261.66
2023-01-29T16:06:18.978Z,101273.03
2023-01-29T16:09:23.961Z,101269.16
2023-01-29T16:12:28.731Z,101259.28
2023-01-29T16:15:33.073Z,101262.31
2023-01-29T16:18:47.746Z,101262.06
2023-01-29T16:22:00.193Z,101271.59
2023-01-29T16:25:11.354Z,101271.94
2023-01-29T16:28:14.574Z,101276.66
2023-01-29T16:31:26.253Z,101269.47
2023-01-29T16:34:40.353Z,101285.22
2023-01-29T16:37:48.113Z,101275.16
2023-01-29T16:41:05.127Z,101275.62
2023-01-29T16:44:17.279Z,101280.47
2023-01-29T16:47:38.906Z,101280.00
2023-01-29T16:50:54.227Z,101272.81
2023-01-29T16:54:11.882Z,101272.91
2023-01-29T16:57:18.365Z,101280.13
2023-01-29T17:00:23.097Z,101263.75
2023-01-29T17:03:27.452Z,101289.72
2023-01-29T17:06:31.981Z,101280.13
2023-01-29T17:09:37.507Z,101284.66
2023-01-29T17:12:40.574Z,101268.03
2023-01-29T17:15:43.779Z,101266.56
2023-01-29T17:18:47.743Z,101265.81
2023-01-29T17:21:51.332Z,101263.34
2023-01-29T17:24:54.380Z,101260.63
2023-01-29T17:28:00.736Z,101265.09
2023-01-29T17:31:06.505Z,101261.13
2023-01-29T17:34:14.771Z,101261.53
2023-01-29T17:37:17.809Z,101256.66
2023-01-29T17:40:37.788Z,101260.69
2023-01-29T17:43:40.663Z,101278.13
2023-01-29T17:46:43.839Z,101273.41
2023-01-29T17:49:46.986Z,101263.78
2023-01-29T17:52:50.789Z,101254.16
2023-01-29T17:55:53.653Z,101252.38
2023-01-29T17:58:56.800Z,101257.25
2023-01-29T18:01:59.891Z,101243.03
2023-01-29T18:05:03.035Z,101236.72
2023-01-29T18:08:19.900Z,101244.91
2023-01-29T18:11:23.591Z,101235.38
2023-01-29T18:14:26.388Z,101225.03
2023-01-29T18:17:29.521Z,101216.34
2023-01-29T18:20:36.741Z,101225.78
2023-01-29T18:23:40.532Z,101213.81
2023-01-29T18:26:43.595Z,101210.88
2023-01-29T18:29:46.706Z,101191.09
2023-01-29T18:32:50.323Z,101171.16
2023-01-29T18:35:55.192Z,101199.00
2023-01-29T18:38:58.266Z,101204.34
2023-01-29T18:42:01.453Z,101210.50
2023-01-29T18:45:04.617Z,101209.78
2023-01-29T18:48:08.428Z,101202.16
2023-01-29T18:51:11.692Z,101201.62
2023-01-29T18:54:14.817Z,101200.53
2023-01-29T18:58:26.869Z,101212.63
2023-01-29T19:00:40.916Z,101201.00
2023-01-29T19:03:43.735Z,101206.63
2023-01-29T19:06:46.538Z,101211.34
2023-01-29T19:09:50.643Z,101198.50
2023-01-29T19:12:53.746Z,101206.50
2023-01-29T19:15:56.795Z,101202.87
2023-01-29T19:19:00.191Z,101204.22
2023-01-29T19:22:04.446Z,101208.66
2023-01-29T19:25:08.254Z,101202.22
2023-01-29T19:28:11.466Z,101197.31
2023-01-29T19:31:14.744Z,101196.88
2023-01-29T19:34:17.976Z,101182.44
2023-01-29T19:37:21.373Z,101183.53
2023-01-29T19:40:24.392Z,101178.38
2023-01-29T19:43:33.413Z,101180.53
2023-01-29T19:46:36.600Z,101177.09
2023-01-29T19:49:40.691Z,101165.78
2023-01-29T19:52:52.027Z,101164.31
2023-01-29T19:56:09.824Z,101157.97
2023-01-29T19:59:13.220Z,101165.56
2023-01-29T20:02:16.519Z,101166.09
2023-01-29T20:05:20.587Z,101166.44
2023-01-29T20:08:24.061Z,101160.09
2023-01-29T20:11:27.128Z,101157.19
2023-01-29T20:14:29.852Z,101167.31
2023-01-29T20:17:33.035Z,101167.03
2023-01-29T20:20:39.706Z,101173.94
2023-01-29T20:23:45.668Z,101171.94
2023-01-29T20:26:49.301Z,101180.50
2023-01-29T20:29:52.887Z,101180.41
2023-01-29T20:32:55.668Z,101173.16
2023-01-29T20:36:01.151Z,101180.31
2023-01-29T20:39:04.452Z,101170.72
2023-01-29T20:42:07.538Z,101159.22
2023-01-29T20:45:10.505Z,101165.19
2023-01-29T20:48:13.935Z,101160.56
2023-01-29T20:51:17.795Z,101171.97
2023-01-29T20:54:21.007Z,101164.19
2023-01-29T20:57:23.937Z,101153.41
2023-01-29T21:00:26.928Z,101157.03
2023-01-29T21:03:29.928Z,101145.84
2023-01-29T21:06:32.961Z,101146.75
2023-01-29T21:09:35.978Z,101141.22
2023-01-29T21:12:39.085Z,101147.06
2023-01-29T21:15:43.001Z,101140.00
2023-01-29T21:18:46.008Z,101145.06
2023-01-29T21:21:49.062Z,101143.25
2023-01-29T21:24:52.299Z,101133.56
2023-01-29T21:27:54.943Z,101133.47
2023-01-29T21:31:09.502Z,101138.91
2023-01-29T21:34:12.380Z,101141.53
2023-01-29T21:37:15.230Z,101137.09
2023-01-29T21:40:18.356Z,101135.88
2023-01-29T21:43:21.372Z,101149.56
2023-01-29T21:46:23.989Z,101135.16
2023-01-29T21:49:27.879Z,101146.72
2023-01-29T21:52:30.513Z,101141.28
2023-01-29T21:55:34.016Z,101142.72
2023-01-29T21:58:37.148Z,101137.47
2023-01-29T22:01:40.143Z,101147.44
2023-01-29T22:04:43.154Z,101143.00
2023-01-29T22:07:45.783Z,101141.31
2023-01-29T22:10:49.027Z,101136.16
2023-01-29T22:13:51.731Z,101130.44
2023-01-29T22:16:54.744Z,101131.00
2023-01-29T22:19:57.307Z,101120.75
2023-01-29T22:23:00.735Z,101108.44
2023-01-29T22:26:05.214Z,101099.97
2023-01-29T22:29:08.148Z,101103.19
2023-01-29T22:32:11.664Z,101099.75
2023-01-29T22:35:14.606Z,101095.13
2023-01-29T22:38:17.297Z,101092.00
2023-01-29T22:41:20.087Z,101101.59
2023-01-29T22:44:22.917Z,101090.03
2023-01-29T22:47:25.858Z,101082.78
2023-01-29T22:50:28.452Z,101081.50
2023-01-29T22:53:31.647Z,101079.59
2023-01-29T22:56:34.274Z,101080.03
2023-01-29T22:59:37.527Z,101075.25
2023-01-29T23:02:40.193Z,101068.66
2023-01-29T23:05:43.853Z,101062.31
2023-01-29T23:08:46.432Z,101060.41
2023-01-29T23:11:49.358Z,101056.72
2023-01-29T23:14:51.946Z,101053.09
2023-01-29T23:17:54.788Z,101051.47
2023-01-29T23:20:58.003Z,101046.06
2023-01-29T23:24:01.407Z,101043.06
2023-01-29T23:27:16.533Z,101029.84
2023-01-29T23:30:19.708Z,101026.66
2023-01-29T23:33:22.609Z,101017.69
2023-01-29T23:36:25.469Z,101021.13
2023-01-29T23:39:28.000Z,101024.75
2023-01-29T23:42:30.801Z,101031.97
2023-01-29T23:45:33.546Z,101030.00
2023-01-29T23:48:36.657Z,101030.25
2023-01-29T23:51:39.350Z,101024.22
2023-01-29T23:54:42.309Z,101034.66
2023-01-29T23:57:44.939Z,101036.50
